Terminal Aerodrome Forecast
Issued by NWS

Home | Current Version | Previous Version | Text Only | Print | Product List | Glossary On
Versions: 1 2 3 4 5 6 7 8 9 10 11 12 13 14 15 16 17 18 19 20 21 22 23 24 25 26 27 28 29 30 31 32 33 34 35 36 37 38
000
FTUS41 KBGM 260849 AAJ
TAFITH
TAF AMD
KITH 260849Z 2609/2706 15009KT 5SM -DZ BR FEW008 OVC018
      TEMPO 2609/2612 -RA BR BKN008
     FM261700 19009KT P6SM OVC013
     FM262100 25005KT 3SM -SHRA BR OVC009
     FM270000 33006KT 5SM -SHRA BR OVC005=

USA.gov is the U.S. government's official web portal to all federal, state and local government web resources and services.